Time,TemperatureF,DewpointF,PressureIn,WindDirection,WindDirectionDegrees,WindSpeedMPH,WindSpeedGustMPH,Humidity,HourlyPrecipIn,Conditions,Clouds,dailyrainin,SoftwareType,DateUTC
2013-08-03 00:43:00,66.0,66.0,29.94,WSW,247,0.0,0.0,100,0.00,,,0.48,,2013-08-03 04:43:00,
2013-08-03 01:42:00,65.0,65.0,29.96,WSW,247,0.0,0.0,100,0.00,,,0.48,,2013-08-03 05:42:00,
2013-08-03 02:02:00,65.0,65.0,29.96,West,270,0.0,0.0,100,0.00,,,0.48,,2013-08-03 06:02:00,
2013-08-03 02:42:00,65.0,65.0,29.97,West,270,0.0,0.0,100,0.00,,,0.48,,2013-08-03 06:42:00,
2013-08-03 02:52:00,65.0,65.0,29.95,SW,225,0.0,0.0,100,0.00,,,0.48,,2013-08-03 06:52:00,
2013-08-03 03:02:00,65.0,65.0,29.96,SW,225,0.0,0.0,100,0.00,,,0.48,,2013-08-03 07:02:00,
2013-08-03 03:12:00,65.0,65.0,29.96,SW,225,0.0,0.0,100,0.00,,,0.48,,2013-08-03 07:12:00,
2013-08-03 03:32:00,65.0,65.0,29.95,SW,225,0.0,0.0,100,0.00,,,0.49,,2013-08-03 07:32:00,
2013-08-03 03:43:00,65.0,65.0,29.94,SW,225,0.0,0.0,100,0.00,,,0.49,,2013-08-03 07:43:00,
2013-08-03 03:52:00,65.0,65.0,29.94,SW,225,0.0,0.0,100,0.00,,,0.49,,2013-08-03 07:52:00,
2013-08-03 04:02:00,65.0,65.0,29.95,SW,225,0.0,0.0,100,0.00,,,0.49,,2013-08-03 08:02:00,
2013-08-03 04:22:00,65.0,65.0,29.97,NNW,337,0.0,0.0,100,0.00,,,0.49,,2013-08-03 08:22:00,
2013-08-03 04:32:00,65.0,65.0,29.96,WSW,247,0.0,4.0,100,0.00,,,0.49,,2013-08-03 08:32:00,
2013-08-03 04:43:00,65.0,65.0,29.96,NW,315,0.0,0.0,100,0.00,,,0.49,,2013-08-03 08:43:00,
2013-08-03 04:52:00,65.0,65.0,29.97,NW,315,0.0,0.0,100,0.00,,,0.49,,2013-08-03 08:52:00,
2013-08-03 05:02:00,64.0,64.0,29.97,West,270,0.0,0.0,100,0.00,,,0.49,,2013-08-03 09:02:00,
2013-08-03 05:12:00,64.0,64.0,29.96,West,270,0.0,0.0,100,0.00,,,0.49,,2013-08-03 09:12:00,
2013-08-03 05:22:00,64.0,64.0,29.96,WSW,247,0.0,0.0,100,0.00,,,0.49,,2013-08-03 09:22:00,
2013-08-03 05:32:00,64.0,64.0,29.97,South,180,0.0,0.0,100,0.00,,,0.49,,2013-08-03 09:32:00,
2013-08-03 05:43:00,64.0,64.0,29.98,West,270,0.0,0.0,100,0.00,,,0.49,,2013-08-03 09:43:00,
2013-08-03 05:53:00,64.0,64.0,29.97,WNW,292,0.0,0.0,100,0.00,,,0.49,,2013-08-03 09:53:00,
2013-08-03 06:02:00,63.0,63.0,29.97,West,270,0.0,0.0,100,0.00,,,0.49,,2013-08-03 10:02:00,
2013-08-03 06:42:00,62.0,62.0,29.98,WNW,292,0.0,0.0,100,0.00,,,0.49,,2013-08-03 10:42:00,
2013-08-03 06:53:00,62.0,62.0,30.00,WNW,292,0.0,0.0,100,0.00,,,0.49,,2013-08-03 10:53:00,
2013-08-03 07:02:00,63.0,63.0,30.00,WNW,292,0.0,0.0,100,0.00,,,0.49,,2013-08-03 11:02:00,
2013-08-03 07:32:00,62.0,62.0,29.98,WNW,292,0.0,0.0,100,0.00,,,0.49,,2013-08-03 11:32:00,
2013-08-03 07:43:00,63.0,63.0,29.98,WNW,292,0.0,0.0,100,0.00,,,0.49,,2013-08-03 11:43:00,
2013-08-03 07:53:00,63.0,63.0,29.98,WNW,292,0.0,0.0,100,0.00,,,0.49,,2013-08-03 11:53:00,
2013-08-03 08:33:00,64.0,64.0,29.98,NW,315,0.0,0.0,100,0.00,,,0.49,,2013-08-03 12:33:00,
2013-08-03 08:52:00,65.0,65.0,29.98,West,270,1.0,0.0,100,0.00,,,0.49,,2013-08-03 12:52:00,
2013-08-03 09:02:00,66.0,66.0,29.98,WNW,292,0.0,0.0,100,0.00,,,0.49,,2013-08-03 13:02:00,
2013-08-03 09:12:00,66.0,66.0,29.98,WNW,292,0.0,0.0,100,0.00,,,0.49,,2013-08-03 13:12:00,
2013-08-03 09:43:00,68.0,68.0,29.97,North,360,0.0,2.0,100,0.00,,,0.49,,2013-08-03 13:43:00,
2013-08-03 09:52:00,68.0,68.0,29.97,NW,315,0.0,0.0,100,0.00,,,0.49,,2013-08-03 13:52:00,
2013-08-03 10:02:00,70.0,70.0,29.96,WNW,292,1.0,1.0,100,0.00,,,0.49,,2013-08-03 14:02:00,
2013-08-03 10:13:00,70.0,70.0,29.96,NW,315,0.0,0.0,100,0.00,,,0.49,,2013-08-03 14:13:00,
2013-08-03 10:33:00,72.0,72.0,29.95,North,360,0.0,0.0,100,0.00,,,0.41,,2013-08-03 14:33:00,
2013-08-03 10:42:00,73.0,71.0,29.94,West,270,0.0,2.0,95,0.00,,,0.28,,2013-08-03 14:42:00,
2013-08-03 11:02:00,75.0,72.0,29.94,West,270,0.0,3.0,90,0.00,,,0.18,,2013-08-03 15:02:00,
2013-08-03 11:22:00,76.0,71.0,29.93,East,90,0.0,0.0,85,0.00,,,0.18,,2013-08-03 15:22:00,
2013-08-03 11:32:00,76.0,67.0,29.93,WNW,292,0.0,0.0,74,0.00,,,0.17,,2013-08-03 15:32:00,
2013-08-03 12:02:00,78.0,67.0,29.92,NW,315,0.0,0.0,68,0.00,,,0.11,,2013-08-03 16:02:00,
2013-08-03 12:12:00,78.0,68.0,29.92,NW,315,0.0,0.0,71,0.00,,,0.10,,2013-08-03 16:12:00,
2013-08-03 12:22:00,78.0,65.0,29.93,NE,45,0.0,0.0,64,0.00,,,0.10,,2013-08-03 16:22:00,
2013-08-03 12:33:00,77.0,63.0,29.94,NE,45,0.0,0.0,61,0.00,,,0.09,,2013-08-03 16:33:00,
2013-08-03 12:43:00,79.0,64.0,29.92,NE,45,0.0,0.0,60,0.00,,,0.09,,2013-08-03 16:43:00,
2013-08-03 12:53:00,80.0,63.0,29.93,WSW,247,0.0,0.0,57,0.00,,,0.09,,2013-08-03 16:53:00,
2013-08-03 13:03:00,81.0,62.0,29.92,WNW,292,0.0,0.0,53,0.00,,,0.09,,2013-08-03 17:03:00,
2013-08-03 13:22:00,81.0,63.0,29.93,WSW,247,0.0,0.0,54,0.00,,,0.09,,2013-08-03 17:22:00,
2013-08-03 13:43:00,82.0,63.0,29.93,NNW,337,0.0,0.0,52,0.00,,,0.09,,2013-08-03 17:43:00,
2013-08-03 13:52:00,79.0,60.0,29.94,West,270,0.0,0.0,53,0.00,,,0.08,,2013-08-03 17:52:00,
2013-08-03 14:02:00,80.0,62.0,29.95,NW,315,0.0,0.0,55,0.00,,,0.07,,2013-08-03 18:02:00,
2013-08-03 14:12:00,82.0,63.0,29.93,ENE,67,0.0,0.0,52,0.00,,,0.06,,2013-08-03 18:12:00,
2013-08-03 14:22:00,81.0,62.0,29.93,West,270,0.0,0.0,52,0.00,,,0.06,,2013-08-03 18:22:00,
2013-08-03 14:32:00,81.0,62.0,29.93,East,90,0.0,0.0,52,0.00,,,0.06,,2013-08-03 18:32:00,
2013-08-03 14:43:00,82.0,63.0,29.94,West,270,0.0,0.0,52,0.00,,,0.06,,2013-08-03 18:43:00,
2013-08-03 14:53:00,81.0,61.0,29.94,North,360,0.0,0.0,51,0.00,,,0.06,,2013-08-03 18:53:00,
2013-08-03 15:03:00,81.0,61.0,29.93,West,270,0.0,0.0,51,0.00,,,0.06,,2013-08-03 19:03:00,
2013-08-03 15:12:00,79.0,59.0,29.93,West,270,0.0,6.0,51,0.00,,,0.06,,2013-08-03 19:12:00,
2013-08-03 15:22:00,80.0,61.0,29.94,West,270,0.0,3.0,52,0.00,,,0.06,,2013-08-03 19:22:00,
2013-08-03 15:32:00,79.0,60.0,29.96,WNW,292,1.0,0.0,52,0.00,,,0.06,,2013-08-03 19:32:00,
2013-08-03 15:43:00,80.0,61.0,29.94,West,270,0.0,0.0,52,0.00,,,0.06,,2013-08-03 19:43:00,
2013-08-03 15:52:00,81.0,60.0,29.94,NNE,22,0.0,0.0,49,0.00,,,0.06,,2013-08-03 19:52:00,
2013-08-03 16:02:00,82.0,60.0,29.93,NNE,22,0.0,0.0,48,0.00,,,0.06,,2013-08-03 20:02:00,
2013-08-03 16:12:00,82.0,60.0,29.93,NW,315,0.0,0.0,47,0.00,,,0.06,,2013-08-03 20:12:00,
2013-08-03 16:22:00,80.0,60.0,29.93,WNW,292,0.0,5.0,50,0.00,,,0.06,,2013-08-03 20:22:00,
2013-08-03 16:32:00,82.0,61.0,29.93,NW,315,0.0,0.0,50,0.00,,,0.06,,2013-08-03 20:32:00,
2013-08-03 16:42:00,82.0,59.0,29.93,NW,315,0.0,0.0,46,0.00,,,0.06,,2013-08-03 20:42:00,
2013-08-03 16:52:00,82.0,60.0,29.91,WNW,292,0.0,0.0,47,0.00,,,0.06,,2013-08-03 20:52:00,
2013-08-03 17:02:00,81.0,61.0,29.93,NNW,337,0.0,0.0,51,0.00,,,0.06,,2013-08-03 21:02:00,
2013-08-03 17:12:00,80.0,60.0,29.93,North,360,0.0,4.0,51,0.00,,,0.06,,2013-08-03 21:12:00,
2013-08-03 17:22:00,79.0,59.0,29.94,West,270,1.0,5.0,51,0.00,,,0.06,,2013-08-03 21:22:00,
2013-08-03 17:32:00,79.0,60.0,29.95,WNW,292,1.0,4.0,53,0.00,,,0.06,,2013-08-03 21:32:00,
2013-08-03 17:42:00,80.0,60.0,29.94,West,270,1.0,11.0,50,0.00,,,0.06,,2013-08-03 21:42:00,
2013-08-03 17:52:00,79.0,59.0,29.95,NW,315,1.0,4.0,50,0.00,,,0.06,,2013-08-03 21:52:00,
2013-08-03 18:02:00,79.0,58.0,29.94,West,270,2.0,9.0,49,0.00,,,0.06,,2013-08-03 22:02:00,
2013-08-03 18:12:00,78.0,58.0,29.96,NW,315,2.0,4.0,50,0.00,,,0.06,,2013-08-03 22:12:00,
2013-08-03 18:22:00,77.0,57.0,29.96,WNW,292,1.0,2.0,51,0.00,,,0.06,,2013-08-03 22:22:00,
2013-08-03 18:33:00,77.0,56.0,29.96,ENE,67,2.0,8.0,49,0.00,,,0.06,,2013-08-03 22:33:00,
2013-08-03 18:43:00,76.0,57.0,29.97,NNW,337,1.0,2.0,51,0.00,,,0.06,,2013-08-03 22:43:00,
2013-08-03 18:52:00,76.0,57.0,29.98,NW,315,1.0,3.0,51,0.00,,,0.06,,2013-08-03 22:52:00,
2013-08-03 19:02:00,76.0,56.0,29.98,West,270,2.0,6.0,50,0.00,,,0.04,,2013-08-03 23:02:00,
2013-08-03 19:12:00,77.0,57.0,29.96,WNW,292,1.0,4.0,50,0.00,,,0.03,,2013-08-03 23:12:00,
2013-08-03 19:22:00,77.0,56.0,29.97,West,270,1.0,5.0,49,0.00,,,0.02,,2013-08-03 23:22:00,
2013-08-03 19:32:00,76.0,55.0,29.98,NW,315,2.0,8.0,49,0.00,,,0.02,,2013-08-03 23:32:00,
2013-08-03 19:43:00,74.0,55.0,29.98,SW,225,2.0,5.0,51,0.00,,,0.02,,2013-08-03 23:43:00,
2013-08-03 20:02:00,72.0,55.0,30.00,NNW,337,1.0,4.0,55,0.00,,,0.02,,2013-08-04 00:02:00,
2013-08-03 20:12:00,71.0,54.0,30.01,West,270,1.0,6.0,55,0.00,,,0.02,,2013-08-04 00:12:00,
2013-08-03 20:22:00,70.0,54.0,30.02,NNW,337,1.0,6.0,56,0.00,,,0.02,,2013-08-04 00:22:00,
2013-08-03 20:32:00,70.0,54.0,30.01,WNW,292,0.0,0.0,56,0.00,,,0.02,,2013-08-04 00:32:00,
2013-08-03 20:42:00,70.0,55.0,30.03,West,270,0.0,0.0,58,0.00,,,0.02,,2013-08-04 00:42:00,
2013-08-03 20:52:00,69.0,55.0,30.02,West,270,0.0,3.0,60,0.00,,,0.02,,2013-08-04 00:52:00,
2013-08-03 21:02:00,68.0,54.0,30.02,West,270,0.0,0.0,61,0.00,,,0.02,,2013-08-04 01:02:00,
2013-08-03 21:12:00,67.0,55.0,30.03,North,360,1.0,3.0,65,0.00,,,0.02,,2013-08-04 01:12:00,
2013-08-03 21:22:00,67.0,55.0,30.03,North,360,1.0,3.0,65,0.00,,,0.02,,2013-08-04 01:22:00,
2013-08-03 21:32:00,67.0,56.0,30.03,West,270,1.0,3.0,69,0.00,,,0.02,,2013-08-04 01:32:00,
2013-08-03 21:42:00,64.0,57.0,30.05,West,270,0.0,0.0,77,0.00,,,0.02,,2013-08-04 01:42:00,
2013-08-03 21:53:00,64.0,56.0,30.07,West,270,0.0,0.0,76,0.00,,,0.02,,2013-08-04 01:53:00,
2013-08-03 22:02:00,64.0,57.0,30.07,West,270,0.0,0.0,79,0.00,,,0.02,,2013-08-04 02:02:00,
2013-08-03 22:12:00,64.0,57.0,30.07,West,270,0.0,0.0,79,0.00,,,0.02,,2013-08-04 02:12:00,
2013-08-03 22:22:00,64.0,57.0,30.07,West,270,0.0,0.0,79,0.00,,,0.02,,2013-08-04 02:22:00,
2013-08-03 22:32:00,63.0,57.0,30.07,WNW,292,0.0,0.0,80,0.00,,,0.02,,2013-08-04 02:32:00,
2013-08-03 22:42:00,63.0,57.0,30.07,WNW,292,0.0,0.0,82,0.00,,,0.02,,2013-08-04 02:42:00,
2013-08-03 22:52:00,61.0,58.0,30.08,WNW,292,0.0,0.0,91,0.00,,,0.01,,2013-08-04 02:52:00,
2013-08-03 23:02:00,61.0,59.0,30.09,WNW,292,0.0,0.0,94,0.00,,,0.01,,2013-08-04 03:02:00,
2013-08-03 23:12:00,60.0,59.0,30.09,WNW,292,0.0,0.0,95,0.00,,,0.01,,2013-08-04 03:12:00,
2013-08-03 23:22:00,60.0,59.0,30.08,WNW,292,0.0,0.0,95,0.00,,,0.01,,2013-08-04 03:22:00,
2013-08-03 23:32:00,60.0,59.0,30.08,WNW,292,0.0,0.0,95,0.00,,,0.01,,2013-08-04 03:32:00,
2013-08-03 23:42:00,60.0,59.0,30.09,WNW,292,0.0,0.0,95,0.00,,,0.01,,2013-08-04 03:42:00,
2013-08-03 23:52:00,59.0,58.0,30.10,WNW,292,0.0,5.0,97,0.00,,,0.01,,2013-08-04 03:52:00,